Decoded Metar for PABA (BARTER ISLAND in AK, USA) (IATA:BTI) | Meteo·Mobile Aviation Weather
aviador You're here:

PABA Decoded Metar

BARTER ISLAND in AK, USA
Report Time2019-04-23 14:52:00
UTC Time2019-04-23 15:53:49
Flight Rules vfr VFR
Wind060° at 17 kt
W.Decomp.*RWY 07: 13.6 kt HW 10.2 kt LCW
Visibility9999 m
Phenomena:N/A
Clouds:N/A
Expected CloudBase > 1,200 ft AGL from Temp-Dew spread
CeilingNone
Temp-13°C (ISA -28)
Dew Point-16°C (78% RH)
AAT-22.5°C
QNH1019 hPa
Density Alt-3,701 ft
Elevation7 ft
Report Wrong Elevation
Raw Report
PABA 231452Z 06017KT 10SM CLR M13/M16 A3009=

Extra information for PABA:More info

Airport Information Weather charts Add Link Nearby Venues Social comments

AIRNAV info for PABA